createdAt,value
2023-02-02T00:01:01.287Z,32.10
2023-02-02T00:03:29.694Z,29.50
2023-02-02T00:05:57.339Z,31.20
2023-02-02T00:08:24.294Z,33.30
2023-02-02T00:10:51.513Z,31.80
2023-02-02T00:13:18.347Z,31.10
2023-02-02T00:15:45.937Z,33.90
2023-02-02T00:18:12.760Z,30.00
2023-02-02T00:20:39.891Z,33.10
2023-02-02T00:23:06.697Z,31.90
2023-02-02T00:25:34.035Z,30.30
2023-02-02T00:28:01.235Z,30.80
2023-02-02T00:30:28.403Z,30.30
2023-02-02T00:32:56.482Z,31.60
2023-02-02T00:35:24.119Z,30.20
2023-02-02T00:37:51.555Z,28.90
2023-02-02T00:40:18.421Z,29.10
2023-02-02T00:42:49.896Z,27.90
2023-02-02T00:45:16.892Z,30.50
2023-02-02T00:47:47.996Z,27.00
2023-02-02T00:50:19.263Z,30.30
2023-02-02T00:52:47.709Z,30.70
2023-02-02T00:55:15.211Z,29.30
2023-02-02T00:57:46.326Z,28.40
2023-02-02T01:00:23.786Z,30.20
2023-02-02T01:02:51.709Z,29.30
2023-02-02T01:05:19.363Z,29.80
2023-02-02T01:07:46.746Z,30.70
2023-02-02T01:10:17.387Z,28.30
2023-02-02T01:12:44.727Z,28.70
2023-02-02T01:15:13.575Z,29.30
2023-02-02T01:17:41.315Z,33.90
2023-02-02T01:20:10.611Z,29.50
2023-02-02T01:22:38.177Z,29.90
2023-02-02T01:25:05.593Z,27.20
2023-02-02T01:27:32.700Z,31.20
2023-02-02T01:29:59.573Z,31.60
2023-02-02T01:32:26.513Z,28.80
2023-02-02T01:34:53.653Z,29.50
2023-02-02T01:37:21.807Z,27.90
2023-02-02T01:39:48.809Z,30.70
2023-02-02T01:42:19.666Z,29.60
2023-02-02T01:45:03.438Z,31.70
2023-02-02T01:47:37.784Z,30.60
2023-02-02T01:50:05.414Z,30.50
2023-02-02T01:52:32.504Z,28.60
2023-02-02T01:55:01.128Z,30.10
2023-02-02T01:57:41.320Z,31.90
2023-02-02T02:00:10.921Z,29.80
2023-02-02T02:02:44.627Z,29.40
2023-02-02T02:05:11.609Z,29.30
2023-02-02T02:07:40.156Z,31.10
2023-02-02T02:10:08.009Z,29.10
2023-02-02T02:12:35.490Z,28.40
2023-02-02T02:15:24.409Z,31.80
2023-02-02T02:18:28.371Z,28.60
2023-02-02T02:21:26.088Z,31.10
2023-02-02T02:24:39.079Z,28.20
2023-02-02T02:27:50.081Z,30.70
2023-02-02T02:30:50.469Z,31.90
2023-02-02T02:33:30.633Z,31.00
2023-02-02T02:36:03.979Z,29.30
2023-02-02T02:38:46.154Z,31.40
2023-02-02T02:41:22.208Z,28.80
2023-02-02T02:43:56.319Z,28.80
2023-02-02T02:46:23.513Z,26.50
2023-02-02T02:48:50.607Z,25.80
2023-02-02T02:51:52.659Z,26.70
2023-02-02T02:54:27.120Z,27.40
2023-02-02T02:57:01.318Z,27.40
2023-02-02T02:59:50.233Z,26.20
2023-02-02T03:02:36.902Z,54.20
2023-02-02T03:05:19.513Z,25.40
2023-02-02T03:08:08.630Z,26.80
2023-02-02T03:10:36.410Z,24.40
2023-02-02T03:13:07.011Z,24.10
2023-02-02T03:15:33.886Z,24.50
2023-02-02T03:18:01.744Z,23.30
2023-02-02T03:20:28.983Z,24.10
2023-02-02T03:22:55.801Z,23.50
2023-02-02T03:25:23.536Z,22.10
2023-02-02T03:27:51.445Z,24.50
2023-02-02T03:30:18.488Z,23.00
2023-02-02T03:32:46.130Z,22.60
2023-02-02T03:35:13.129Z,24.10
2023-02-02T03:37:40.047Z,23.60
2023-02-02T03:40:07.667Z,22.00
2023-02-02T03:42:34.646Z,22.70
2023-02-02T03:45:01.683Z,22.80
2023-02-02T03:47:29.509Z,23.60
2023-02-02T03:57:36.055Z,22.90
2023-02-02T04:00:04.941Z,23.30
2023-02-02T04:02:40.635Z,23.50
2023-02-02T04:05:08.933Z,24.50
2023-02-02T07:27:28.319Z,34.20
2023-02-02T07:29:55.660Z,31.30
2023-02-02T07:32:22.620Z,33.00
2023-02-02T07:34:49.763Z,30.80
2023-02-02T07:37:16.654Z,27.80
2023-02-02T07:39:43.927Z,26.80
2023-02-02T07:42:12.273Z,28.60
2023-02-02T07:44:40.116Z,27.50
2023-02-02T07:47:07.251Z,26.40
2023-02-02T07:49:34.129Z,26.30
2023-02-02T07:52:01.432Z,25.60
2023-02-02T07:54:28.675Z,24.00
2023-02-02T07:56:55.658Z,22.10
2023-02-02T07:59:22.553Z,20.60
2023-02-02T08:01:49.612Z,22.10
2023-02-02T08:04:16.842Z,23.20
2023-02-02T08:06:43.794Z,22.90
2023-02-02T08:09:10.833Z,21.90
2023-02-02T08:11:38.128Z,24.20
2023-02-02T08:14:05.552Z,19.80
2023-02-02T08:16:33.076Z,19.10
2023-02-02T08:19:00.204Z,21.00
2023-02-02T08:21:27.267Z,20.80
2023-02-02T08:23:54.205Z,20.00
2023-02-02T08:26:21.720Z,21.10
2023-02-02T08:28:51.935Z,19.00
2023-02-02T08:31:21.149Z,19.00
2023-02-02T08:33:48.888Z,19.10
2023-02-02T08:36:17.639Z,22.30
2023-02-02T08:38:47.369Z,19.80
2023-02-02T08:41:16.202Z,16.90
2023-02-02T08:43:43.866Z,19.20
2023-02-02T08:46:14.614Z,16.80
2023-02-02T08:48:41.686Z,19.30
2023-02-02T08:51:10.507Z,17.70
2023-02-02T08:53:42.740Z,20.00
2023-02-02T08:56:11.995Z,19.30
2023-02-02T08:58:38.984Z,20.50
2023-02-02T09:01:27.993Z,19.10
2023-02-02T09:03:58.758Z,17.90
2023-02-02T09:06:35.292Z,16.50
2023-02-02T09:09:05.593Z,18.20
2023-02-02T09:11:33.996Z,17.70
2023-02-02T09:14:06.841Z,16.50
2023-02-02T09:16:36.733Z,18.10
2023-02-02T09:19:05.605Z,15.60
2023-02-02T09:21:37.625Z,17.10
2023-02-02T09:24:10.256Z,18.10
2023-02-02T09:26:40.563Z,17.10
2023-02-02T09:29:12.049Z,16.80
2023-02-02T09:31:40.410Z,18.60
2023-02-02T09:34:10.588Z,17.10
2023-02-02T09:36:39.296Z,21.50
2023-02-02T09:39:09.749Z,18.10
2023-02-02T09:41:38.239Z,18.20
2023-02-02T09:44:33.101Z,18.60
2023-02-02T09:47:18.326Z,18.90
2023-02-02T09:50:19.412Z,19.60
2023-02-02T09:53:11.505Z,20.50
2023-02-02T09:55:41.624Z,15.70
2023-02-02T09:58:20.130Z,18.20
2023-02-02T10:00:52.710Z,23.30
2023-02-02T10:04:16.451Z,18.80
2023-02-02T10:06:49.487Z,32.90
2023-02-02T10:09:43.974Z,19.40
2023-02-02T10:12:53.858Z,17.50
2023-02-02T10:15:28.622Z,17.40
2023-02-02T10:17:59.624Z,14.50
2023-02-02T10:20:33.068Z,14.60
2023-02-02T10:23:12.324Z,14.30
2023-02-02T10:25:41.562Z,13.00
2023-02-02T10:28:17.635Z,13.20
2023-02-02T10:30:55.676Z,13.10
2023-02-02T10:33:39.968Z,12.90
2023-02-02T10:36:22.114Z,12.80
2023-02-02T10:39:00.664Z,13.10
2023-02-02T10:41:38.877Z,11.10
2023-02-02T10:44:16.024Z,10.40
2023-02-02T10:46:47.349Z,9.70
2023-02-02T10:49:33.637Z,10.10
2023-02-02T10:52:34.379Z,12.40
2023-02-02T10:55:19.309Z,10.30
2023-02-02T10:57:57.621Z,10.00
2023-02-02T11:00:35.399Z,8.80
2023-02-02T11:03:05.246Z,8.10
2023-02-02T11:05:54.159Z,9.40
2023-02-02T11:08:30.709Z,8.20
2023-02-02T11:10:59.414Z,10.30
2023-02-02T11:13:32.326Z,10.30
2023-02-02T11:16:16.090Z,11.10
2023-02-02T11:18:44.717Z,9.50
2023-02-02T11:21:20.820Z,29.20
2023-02-02T11:24:00.424Z,28.50
2023-02-02T11:26:56.626Z,12.50
2023-02-02T11:29:44.486Z,8.40
2023-02-02T11:32:35.463Z,8.60
2023-02-02T11:35:08.470Z,8.10
2023-02-02T11:37:37.969Z,8.10
2023-02-02T11:40:27.620Z,8.50
2023-02-02T11:42:57.163Z,6.10
2023-02-02T11:45:35.704Z,6.40
2023-02-02T11:48:22.140Z,6.50
2023-02-02T11:50:52.370Z,6.50
2023-02-02T11:53:26.013Z,6.60
2023-02-02T11:55:55.179Z,7.20
2023-02-02T11:58:30.961Z,6.50
2023-02-02T12:01:03.958Z,5.90
2023-02-02T12:03:41.278Z,8.40
2023-02-02T12:06:23.910Z,8.50
2023-02-02T12:08:58.431Z,7.60
2023-02-02T12:11:39.443Z,7.40
2023-02-02T12:14:18.297Z,7.20
2023-02-02T12:17:10.380Z,7.60
2023-02-02T12:19:57.861Z,8.60
2023-02-02T12:23:04.642Z,16.90
2023-02-02T12:25:59.328Z,22.70
2023-02-02T12:28:30.399Z,30.50
2023-02-02T12:31:13.813Z,19.00
2023-02-02T12:33:50.708Z,11.60
2023-02-02T12:36:22.228Z,13.10
2023-02-02T12:38:58.039Z,12.10
2023-02-02T12:41:45.091Z,13.50
2023-02-02T12:44:42.551Z,14.40
2023-02-02T12:47:29.586Z,12.90
2023-02-02T12:50:10.352Z,13.60
2023-02-02T12:53:07.553Z,13.90
2023-02-02T12:55:57.833Z,12.90
2023-02-02T12:58:41.591Z,13.30
2023-02-02T13:01:22.008Z,13.30
2023-02-02T13:03:50.435Z,12.90
2023-02-02T13:06:43.756Z,34.40
2023-02-02T13:11:46.110Z,13.70
2023-02-02T13:14:31.891Z,14.60
2023-02-02T13:17:03.005Z,12.90
2023-02-02T13:19:52.324Z,11.60
2023-02-02T13:22:32.435Z,12.80
2023-02-02T13:25:01.470Z,12.10
2023-02-02T13:27:30.876Z,11.90
2023-02-02T13:30:30.159Z,11.20
2023-02-02T13:33:00.503Z,14.70
2023-02-02T13:35:38.676Z,14.70
2023-02-02T13:38:21.388Z,13.80
2023-02-02T13:40:50.240Z,12.30
2023-02-02T13:43:21.958Z,15.70
2023-02-02T13:46:21.818Z,14.40
2023-02-02T13:49:11.064Z,15.60
2023-02-02T13:52:04.293Z,29.70
2023-02-02T13:54:38.641Z,14.50
2023-02-02T13:57:28.984Z,10.80
2023-02-02T14:00:36.399Z,19.40
2023-02-02T14:03:06.347Z,22.60
2023-02-02T14:05:39.659Z,19.00
2023-02-02T14:08:30.268Z,27.60
2023-02-02T14:11:00.947Z,14.70
2023-02-02T14:13:55.263Z,15.70
2023-02-02T14:16:45.742Z,12.00
2023-02-02T14:19:16.270Z,16.50
2023-02-02T14:21:44.597Z,26.20
2023-02-02T14:24:34.867Z,25.40
2023-02-02T14:27:23.503Z,19.60
2023-02-02T14:29:54.816Z,15.40
2023-02-02T14:32:29.498Z,13.70
2023-02-02T14:35:11.269Z,15.10
2023-02-02T14:37:43.347Z,15.60
2023-02-02T14:40:43.854Z,15.20
2023-02-02T14:43:55.613Z,22.80
2023-02-02T14:46:40.384Z,22.30
2023-02-02T14:49:13.576Z,22.70
2023-02-02T14:54:26.642Z,19.70
2023-02-02T14:56:59.477Z,16.50
2023-02-02T14:59:39.078Z,13.50
2023-02-02T15:02:15.715Z,13.70
2023-02-02T15:04:48.025Z,12.70
2023-02-02T15:07:25.423Z,13.90
2023-02-02T15:09:58.431Z,11.10
2023-02-02T15:12:40.904Z,11.80
2023-02-02T15:15:12.072Z,15.90
2023-02-02T15:17:41.038Z,22.00
2023-02-02T15:20:32.055Z,21.60
2023-02-02T15:23:39.301Z,17.00
2023-02-02T15:26:28.739Z,17.90
2023-02-02T15:29:19.728Z,15.40
2023-02-02T15:31:52.380Z,16.20
2023-02-02T15:34:27.228Z,16.20
2023-02-02T15:36:57.742Z,18.20
2023-02-02T15:39:41.867Z,18.40
2023-02-02T15:42:40.695Z,24.00
2023-02-02T15:45:35.792Z,17.80
2023-02-02T15:48:16.432Z,18.70
2023-02-02T15:50:46.855Z,18.20
2023-02-02T15:53:20.511Z,17.90
2023-02-02T15:55:49.032Z,23.10
2023-02-02T15:58:26.544Z,22.50
2023-02-02T16:01:03.667Z,16.40
2023-02-02T16:03:42.561Z,22.20
2023-02-02T16:06:10.775Z,17.60
2023-02-02T16:08:40.139Z,16.20
2023-02-02T16:11:19.462Z,14.80
2023-02-02T16:14:10.662Z,16.00
2023-02-02T16:16:40.129Z,14.90
2023-02-02T16:19:09.103Z,15.20
2023-02-02T16:21:55.094Z,16.30
2023-02-02T16:24:24.683Z,17.80
2023-02-02T16:26:54.359Z,17.90
2023-02-02T16:29:23.287Z,15.50
2023-02-02T16:31:51.996Z,16.70
2023-02-02T16:34:40.593Z,17.70
2023-02-02T16:37:27.549Z,18.10
2023-02-02T16:39:57.905Z,18.70
2023-02-02T16:42:28.876Z,20.60
2023-02-02T16:44:59.613Z,23.00
2023-02-02T16:47:28.130Z,18.10
2023-02-02T16:50:26.830Z,15.00
2023-02-02T16:53:04.647Z,16.30
2023-02-02T16:55:49.521Z,15.50
2023-02-02T16:58:22.585Z,12.40
2023-02-02T17:01:16.843Z,16.80
2023-02-02T17:03:53.527Z,15.50
2023-02-02T17:06:41.597Z,13.70
2023-02-02T17:09:25.912Z,14.90
2023-02-02T17:12:34.940Z,14.40
2023-02-02T17:15:29.405Z,17.50
2023-02-02T17:17:59.336Z,22.30
2023-02-02T17:20:27.825Z,17.00
2023-02-02T17:23:01.696Z,18.40
2023-02-02T17:25:36.669Z,33.10
2023-02-02T17:28:08.190Z,18.60
2023-02-02T17:30:41.456Z,20.20
2023-02-02T17:33:16.387Z,18.30
2023-02-02T17:35:54.675Z,17.30
2023-02-02T17:38:24.657Z,18.50
2023-02-02T17:40:53.412Z,15.10
2023-02-02T17:43:23.871Z,14.70
2023-02-02T17:45:52.252Z,13.80
2023-02-02T17:48:21.056Z,14.00
2023-02-02T17:50:49.298Z,13.20
2023-02-02T17:53:19.779Z,13.30
2023-02-02T17:55:49.839Z,12.90
2023-02-02T17:58:19.005Z,13.70
2023-02-02T18:00:49.277Z,14.30
2023-02-02T18:03:33.706Z,15.00
2023-02-02T18:06:04.037Z,13.40
2023-02-02T18:08:32.908Z,13.50
2023-02-02T18:11:01.411Z,14.10
2023-02-02T18:13:31.047Z,13.30
2023-02-02T18:16:02.374Z,13.60
2023-02-02T18:18:31.868Z,18.90
2023-02-02T18:21:00.367Z,16.60
2023-02-02T18:23:29.309Z,23.70
2023-02-02T18:25:57.639Z,23.20
2023-02-02T18:28:26.446Z,27.10
2023-02-02T18:30:55.705Z,21.30
2023-02-02T18:33:24.764Z,19.50
2023-02-02T18:35:53.380Z,62.50
2023-02-02T18:38:24.496Z,23.80
2023-02-02T18:40:58.880Z,24.00
2023-02-02T18:43:27.913Z,14.30
2023-02-02T18:46:07.286Z,25.90
2023-02-02T18:48:37.087Z,14.70
2023-02-02T18:51:12.452Z,12.80
2023-02-02T18:53:45.160Z,14.10
2023-02-02T18:56:14.520Z,14.40
2023-02-02T18:58:42.990Z,16.10
2023-02-02T19:01:16.785Z,13.80
2023-02-02T19:03:49.664Z,13.20
2023-02-02T19:06:38.020Z,14.30
2023-02-02T19:09:06.472Z,15.20
2023-02-02T19:11:44.693Z,13.80
2023-02-02T19:14:26.760Z,14.10
2023-02-02T19:16:58.682Z,13.90
2023-02-02T19:19:30.793Z,12.60
2023-02-02T19:22:03.396Z,12.50
2023-02-02T19:24:37.616Z,11.70
2023-02-02T19:27:15.940Z,12.80
2023-02-02T19:29:55.262Z,15.70
2023-02-02T19:32:27.114Z,12.70
2023-02-02T19:34:58.225Z,12.10
2023-02-02T19:37:30.714Z,14.00
2023-02-02T19:40:08.620Z,11.40
2023-02-02T19:45:23.834Z,14.70
2023-02-02T19:47:52.765Z,12.10
2023-02-02T19:50:22.792Z,11.00
2023-02-02T19:52:51.679Z,13.60
2023-02-02T19:55:28.966Z,14.00
2023-02-02T19:58:01.735Z,24.10
2023-02-02T20:00:30.558Z,19.30
2023-02-02T20:03:02.873Z,25.70
2023-02-02T20:05:46.632Z,24.60
2023-02-02T20:08:30.985Z,30.10
2023-02-02T20:11:00.876Z,17.90
2023-02-02T20:13:48.719Z,13.10
2023-02-02T20:16:19.455Z,10.30
2023-02-02T20:18:54.696Z,11.20
2023-02-02T20:21:28.047Z,15.60
2023-02-02T20:23:57.518Z,11.40
2023-02-02T20:26:29.480Z,12.60
2023-02-02T20:28:59.218Z,13.30
2023-02-02T20:31:35.915Z,11.70
2023-02-02T20:34:24.286Z,10.50
2023-02-02T20:36:55.735Z,10.50
2023-02-02T20:39:37.299Z,15.20
2023-02-02T20:42:05.895Z,10.90
2023-02-02T20:44:35.295Z,12.10
2023-02-02T20:47:04.284Z,12.20
2023-02-02T20:49:35.009Z,14.90
2023-02-02T20:52:04.660Z,12.60
2023-02-02T20:54:34.199Z,13.30
2023-02-02T20:57:02.544Z,13.60
2023-02-02T20:59:34.225Z,12.40
2023-02-02T21:02:06.329Z,10.40
2023-02-02T21:04:35.069Z,11.20
2023-02-02T21:07:04.383Z,9.80
2023-02-02T21:09:33.362Z,8.90
2023-02-02T21:12:02.870Z,11.30
2023-02-02T21:14:31.892Z,13.30
2023-02-02T21:17:13.993Z,19.80
2023-02-02T21:22:14.569Z,17.20
2023-02-02T21:24:43.705Z,12.50
2023-02-02T21:27:12.182Z,12.20
2023-02-02T21:29:40.916Z,10.70
2023-02-02T21:32:09.372Z,12.10
2023-02-02T21:34:37.973Z,12.30
2023-02-02T21:37:14.426Z,10.80
2023-02-02T21:39:49.796Z,11.70
2023-02-02T21:42:20.160Z,11.90
2023-02-02T21:44:54.366Z,9.30
2023-02-02T21:47:26.904Z,10.60
2023-02-02T21:49:56.964Z,11.90
2023-02-02T21:52:25.889Z,14.00
2023-02-02T21:54:54.030Z,15.30
2023-02-02T21:57:35.581Z,22.60
2023-02-02T22:00:28.816Z,21.90
2023-02-02T22:02:59.181Z,69.60
2023-02-02T22:05:34.609Z,75.00
2023-02-02T22:08:18.163Z,29.40
2023-02-02T22:10:47.539Z,24.40
2023-02-02T22:13:21.214Z,15.60
2023-02-02T22:15:52.499Z,12.00
2023-02-02T22:18:23.412Z,11.90
2023-02-02T22:20:53.126Z,10.40
2023-02-02T22:23:22.738Z,8.80
2023-02-02T22:25:53.636Z,7.70
2023-02-02T22:28:30.258Z,8.30
2023-02-02T22:31:00.978Z,7.70
2023-02-02T22:33:32.537Z,7.90
2023-02-02T22:36:09.768Z,8.10
2023-02-02T22:38:38.164Z,8.40
2023-02-02T22:41:08.868Z,9.00
2023-02-02T22:43:37.256Z,8.00
2023-02-02T22:46:05.488Z,9.60
2023-02-02T22:48:33.726Z,7.00
2023-02-02T22:51:01.912Z,7.90
2023-02-02T22:53:32.602Z,7.60
2023-02-02T22:56:00.891Z,7.80
2023-02-02T22:58:31.652Z,11.20
2023-02-02T23:01:00.069Z,7.70
2023-02-02T23:03:28.251Z,8.00
2023-02-02T23:05:56.786Z,9.40
2023-02-02T23:08:25.116Z,8.00
2023-02-02T23:11:13.170Z,8.00
2023-02-02T23:13:41.384Z,9.30
2023-02-02T23:16:11.090Z,7.60
2023-02-02T23:18:39.337Z,7.80
2023-02-02T23:21:07.817Z,7.80
2023-02-02T23:23:36.023Z,8.60
2023-02-02T23:26:04.880Z,9.50
2023-02-02T23:28:33.031Z,7.70
2023-02-02T23:31:02.481Z,7.80
2023-02-02T23:33:31.296Z,7.10
2023-02-02T23:35:59.682Z,8.50
2023-02-02T23:38:27.903Z,7.70
2023-02-02T23:40:56.293Z,7.00
2023-02-02T23:43:24.553Z,7.10
2023-02-02T23:45:53.287Z,6.90
2023-02-02T23:48:21.548Z,8.50
2023-02-02T23:50:49.768Z,7.10
2023-02-02T23:53:18.021Z,8.50
2023-02-02T23:55:49.268Z,7.70
2023-02-02T23:58:19.154Z,6.30
